Time;durP1;ratioP1;P1;durP2;ratioP2;P2;SDS_P1;SDS_P2;PMS_P1;PMS_P2;Temp;Humidity;BMP_temperature;BMP_pressure;BME280_temperature;BME280_humidity;BME280_pressure;Samples;Min_cycle;Max_cycle;Signal;HPM_P1;HPM_P2
2023/05/10 00:00:25;;;;;;;5.15;4.20;;;;;;;;;;4978121;28;20542;-55
2023/05/10 00:02:50;;;;;;;4.88;3.78;;;;;;;;;;4980993;28;20137;-54
2023/05/10 00:05:15;;;;;;;4.70;3.78;;;;;;;;;;4981342;28;20044;-56
2023/05/10 00:07:44;;;;;;;3.97;3.33;;;;;;;;;;4980220;28;20041;-57
2023/05/10 00:10:10;;;;;;;4.13;3.70;;;;;;;;;;4981313;28;20666;-59
2023/05/10 00:12:38;;;;;;;4.95;3.42;;;;;;;;;;4981522;28;20081;-55
2023/05/10 00:15:05;;;;;;;5.75;4.22;;;;;;;;;;4981336;28;20592;-56
2023/05/10 00:17:30;;;;;;;5.22;3.55;;;;;;;;;;4981339;28;20230;-56
2023/05/10 00:19:56;;;;;;;4.93;3.53;;;;;;;;;;4985146;28;20062;-54
2023/05/10 00:22:21;;;;;;;4.13;3.47;;;;;;;;;;4984458;28;20501;-56
2023/05/10 00:24:46;;;;;;;4.53;3.58;;;;;;;;;;4983512;28;20070;-55
2023/05/10 00:27:12;;;;;;;4.30;3.50;;;;;;;;;;4986759;28;20042;-55
2023/05/10 00:29:37;;;;;;;4.28;3.40;;;;;;;;;;4991267;28;20504;-59
2023/05/10 00:32:02;;;;;;;5.25;3.63;;;;;;;;;;4984011;28;20037;-57
2023/05/10 00:34:28;;;;;;;4.57;4.18;;;;;;;;;;4985343;28;20624;-55
2023/05/10 00:36:54;;;;;;;4.93;3.58;;;;;;;;;;4969823;28;20045;-55
2023/05/10 00:39:20;;;;;;;4.88;3.63;;;;;;;;;;4996857;28;20045;-56
2023/05/10 00:41:45;;;;;;;4.73;3.40;;;;;;;;;;4982807;28;20034;-56
2023/05/10 00:44:11;;;;;;;5.13;3.87;;;;;;;;;;4987026;28;20070;-57
2023/05/10 00:46:36;;;;;;;4.03;3.60;;;;;;;;;;4984071;28;20164;-53
2023/05/10 00:49:02;;;;;;;4.20;3.80;;;;;;;;;;4988539;28;20394;-52
2023/05/10 00:51:28;;;;;;;4.43;3.70;;;;;;;;;;4983172;28;20478;-55
2023/05/10 00:53:55;;;;;;;6.38;4.68;;;;;;;;;;4982620;28;20037;-56
2023/05/10 00:56:22;;;;;;;4.10;3.73;;;;;;;;;;4986671;28;20460;-56
2023/05/10 00:58:48;;;;;;;5.32;4.18;;;;;;;;;;4983899;28;20045;-59
2023/05/10 01:01:14;;;;;;;6.27;4.23;;;;;;;;;;4986333;28;20046;-56
2023/05/10 01:03:40;;;;;;;4.93;4.10;;;;;;;;;;4984411;28;20030;-55
2023/05/10 01:06:05;;;;;;;6.00;4.33;;;;;;;;;;4981665;28;20488;-57
2023/05/10 01:08:31;;;;;;;6.13;4.78;;;;;;;;;;4985544;28;20121;-58
2023/05/10 01:10:57;;;;;;;6.03;3.83;;;;;;;;;;4983953;28;20039;-58
2023/05/10 01:13:27;;;;;;;4.77;4.37;;;;;;;;;;4984062;28;20049;-56
2023/05/10 01:15:53;;;;;;;4.80;4.00;;;;;;;;;;4980858;28;20137;-55
2023/05/10 01:18:19;;;;;;;4.63;3.80;;;;;;;;;;4980875;28;20049;-56
2023/05/10 01:20:48;;;;;;;5.30;4.00;;;;;;;;;;4970523;28;20338;-56
2023/05/10 01:23:29;;;;;;;6.20;3.87;;;;;;;;;;4982374;28;20993;-53
2023/05/10 01:26:14;;;;;;;4.03;3.63;;;;;;;;;;4977794;28;20470;-53
2023/05/10 01:29:11;;;;;;;5.53;4.10;;;;;;;;;;4982623;28;20044;-54
2023/05/10 01:31:52;;;;;;;5.63;4.27;;;;;;;;;;4984944;28;20485;-56
2023/05/10 01:34:20;;;;;;;5.13;3.80;;;;;;;;;;4980520;28;20061;-56
2023/05/10 01:36:58;;;;;;;4.60;3.80;;;;;;;;;;4986583;28;20039;-55
2023/05/10 01:39:25;;;;;;;4.23;3.70;;;;;;;;;;4983613;28;20033;-54
2023/05/10 01:42:16;;;;;;;5.47;4.60;;;;;;;;;;4983480;28;20022;-56
2023/05/10 01:44:50;;;;;;;6.33;4.00;;;;;;;;;;4980783;28;20064;-56
2023/05/10 01:47:19;;;;;;;4.37;3.70;;;;;;;;;;4982579;28;20066;-53
2023/05/10 01:49:48;;;;;;;4.83;4.27;;;;;;;;;;4997469;28;20121;-56
2023/05/10 01:52:17;;;;;;;5.30;4.30;;;;;;;;;;4980988;28;20509;-57
2023/05/10 01:54:44;;;;;;;7.47;4.47;;;;;;;;;;4981332;28;20501;-54
2023/05/10 01:57:12;;;;;;;4.53;3.83;;;;;;;;;;4980464;28;20088;-57
2023/05/10 01:59:41;;;;;;;6.10;4.83;;;;;;;;;;4982839;28;20034;-54
2023/05/10 02:02:11;;;;;;;6.27;4.40;;;;;;;;;;4979583;28;20457;-53
2023/05/10 02:04:38;;;;;;;6.97;4.20;;;;;;;;;;4982475;28;20069;-56
2023/05/10 02:07:04;;;;;;;5.90;3.60;;;;;;;;;;4982177;28;20043;-55
2023/05/10 02:09:31;;;;;;;9.47;4.43;;;;;;;;;;4995906;28;20035;-54
2023/05/10 02:11:59;;;;;;;3.93;3.53;;;;;;;;;;4980813;28;20850;-56
2023/05/10 02:14:26;;;;;;;4.03;3.60;;;;;;;;;;4981331;28;20033;-54
2023/05/10 02:16:52;;;;;;;6.07;3.90;;;;;;;;;;4999336;28;20058;-54
2023/05/10 02:19:18;;;;;;;4.47;3.97;;;;;;;;;;4983172;28;20092;-56
2023/05/10 02:21:44;;;;;;;5.27;4.00;;;;;;;;;;4982113;28;20045;-56
2023/05/10 02:24:13;;;;;;;4.37;3.17;;;;;;;;;;4980517;28;20129;-54
2023/05/10 02:26:39;;;;;;;5.03;4.40;;;;;;;;;;4979990;28;20581;-56
2023/05/10 02:29:05;;;;;;;6.13;4.37;;;;;;;;;;4980883;28;20552;-55
2023/05/10 02:31:31;;;;;;;4.90;4.43;;;;;;;;;;4981907;28;20519;-54
2023/05/10 02:33:57;;;;;;;5.13;3.90;;;;;;;;;;4980302;28;20074;-56
2023/05/10 02:36:24;;;;;;;5.33;4.83;;;;;;;;;;4968822;28;20037;-56
2023/05/10 02:38:50;;;;;;;6.37;4.73;;;;;;;;;;4965737;28;20058;-57
2023/05/10 02:41:16;;;;;;;7.13;5.47;;;;;;;;;;4979787;28;20193;-55
2023/05/10 02:43:41;;;;;;;7.57;4.87;;;;;;;;;;4980868;28;20050;-56
2023/05/10 02:46:07;;;;;;;7.23;5.17;;;;;;;;;;4980470;28;20311;-53
2023/05/10 02:48:34;;;;;;;5.63;4.47;;;;;;;;;;4980814;28;20046;-53
2023/05/10 02:51:03;;;;;;;5.93;4.30;;;;;;;;;;4981090;28;20052;-55
2023/05/10 02:53:33;;;;;;;7.97;4.20;;;;;;;;;;4980870;28;20052;-52
2023/05/10 02:56:01;;;;;;;7.87;4.50;;;;;;;;;;4977765;28;20648;-55
2023/05/10 02:58:27;;;;;;;5.57;4.20;;;;;;;;;;4994497;28;20505;-52
2023/05/10 03:00:52;;;;;;;5.70;4.60;;;;;;;;;;4982860;28;20030;-53
2023/05/10 03:03:20;;;;;;;4.93;3.77;;;;;;;;;;4982191;28;20103;-53
2023/05/10 03:05:48;;;;;;;6.90;5.50;;;;;;;;;;4979588;28;20495;-53
2023/05/10 03:08:17;;;;;;;6.10;4.83;;;;;;;;;;4978360;28;20058;-54
2023/05/10 03:11:10;;;;;;;6.07;4.87;;;;;;;;;;4971193;28;20251;-54
2023/05/10 03:13:56;;;;;;;6.13;4.63;;;;;;;;;;4977486;28;20053;-56
2023/05/10 03:16:27;;;;;;;5.17;3.93;;;;;;;;;;4980902;28;20549;-56
2023/05/10 03:18:59;;;;;;;6.17;4.73;;;;;;;;;;4966842;28;20152;-55
2023/05/10 03:21:28;;;;;;;6.67;4.40;;;;;;;;;;4981808;28;20049;-52
2023/05/10 03:24:05;;;;;;;4.90;4.27;;;;;;;;;;4995354;28;20775;-57
2023/05/10 03:26:31;;;;;;;5.97;4.53;;;;;;;;;;4995108;28;20061;-57
2023/05/10 03:29:06;;;;;;;6.83;4.37;;;;;;;;;;4993715;28;20046;-55
2023/05/10 03:31:33;;;;;;;5.20;4.00;;;;;;;;;;4979769;28;20272;-55
2023/05/10 03:33:59;;;;;;;6.37;4.57;;;;;;;;;;4978875;28;20027;-55
2023/05/10 03:36:26;;;;;;;4.83;3.87;;;;;;;;;;4977240;28;20385;-57
2023/05/10 03:38:52;;;;;;;4.40;4.00;;;;;;;;;;4978655;28;20042;-55
2023/05/10 03:41:18;;;;;;;6.60;5.00;;;;;;;;;;4978465;28;20035;-54
2023/05/10 03:43:43;;;;;;;6.07;4.43;;;;;;;;;;4981009;28;20109;-54
2023/05/10 03:46:09;;;;;;;6.20;4.47;;;;;;;;;;4977685;28;20206;-55
2023/05/10 03:48:37;;;;;;;10.07;4.87;;;;;;;;;;4986977;28;20051;-58
2023/05/10 03:51:02;;;;;;;5.27;4.73;;;;;;;;;;4986755;28;20446;-55
2023/05/10 03:53:33;;;;;;;4.40;3.80;;;;;;;;;;4982315;28;20552;-55
2023/05/10 03:55:58;;;;;;;4.40;3.70;;;;;;;;;;4981280;28;20033;-57
2023/05/10 03:58:29;;;;;;;5.00;4.00;;;;;;;;;;4984221;28;20058;-58
2023/05/10 04:00:55;;;;;;;5.00;3.73;;;;;;;;;;4981717;28;20038;-57
2023/05/10 04:03:27;;;;;;;5.27;4.33;;;;;;;;;;4985673;28;20459;-55
2023/05/10 04:06:02;;;;;;;6.80;4.70;;;;;;;;;;4983540;28;20042;-56
2023/05/10 04:08:28;;;;;;;8.27;4.72;;;;;;;;;;4984296;28;20405;-58
2023/05/10 04:10:54;;;;;;;7.63;4.30;;;;;;;;;;4997819;28;20042;-59
2023/05/10 04:13:19;;;;;;;7.60;4.67;;;;;;;;;;4984462;28;20061;-60
2023/05/10 04:15:45;;;;;;;8.33;5.03;;;;;;;;;;4983157;28;20084;-59
2023/05/10 04:18:13;;;;;;;8.60;4.50;;;;;;;;;;4986595;28;20100;-59
2023/05/10 04:20:38;;;;;;;6.53;5.23;;;;;;;;;;4982305;28;20044;-60
2023/05/10 04:23:04;;;;;;;7.80;4.60;;;;;;;;;;4981750;28;20035;-58
2023/05/10 04:25:29;;;;;;;5.97;4.57;;;;;;;;;;4982912;28;20126;-58
2023/05/10 04:27:55;;;;;;;6.27;4.07;;;;;;;;;;4983032;28;20043;-57
2023/05/10 04:30:22;;;;;;;4.88;4.18;;;;;;;;;;4982151;28;20030;-58
2023/05/10 04:32:48;;;;;;;8.13;4.18;;;;;;;;;;4985015;28;20593;-59
2023/05/10 04:35:14;;;;;;;5.07;4.43;;;;;;;;;;4986380;28;20429;-58
2023/05/10 04:37:40;;;;;;;5.60;4.65;;;;;;;;;;4983885;28;20045;-58
2023/05/10 04:40:06;;;;;;;4.50;4.10;;;;;;;;;;4982371;28;20034;-60
2023/05/10 04:42:31;;;;;;;6.30;4.60;;;;;;;;;;4983697;28;20109;-59
2023/05/10 04:44:56;;;;;;;9.98;4.95;;;;;;;;;;4981002;28;20039;-59
2023/05/10 04:47:22;;;;;;;9.70;5.55;;;;;;;;;;4985263;28;20560;-57
2023/05/10 04:49:47;;;;;;;8.45;5.60;;;;;;;;;;4986770;28;20453;-58
2023/05/10 04:52:14;;;;;;;6.20;4.45;;;;;;;;;;4978283;28;20042;-59
2023/05/10 04:54:39;;;;;;;8.85;4.88;;;;;;;;;;4983034;28;20513;-58
2023/05/10 04:57:05;;;;;;;5.22;4.47;;;;;;;;;;4982159;28;20076;-60
2023/05/10 04:59:30;;;;;;;5.88;5.28;;;;;;;;;;4985036;28;20039;-58
2023/05/10 05:01:55;;;;;;;6.13;5.18;;;;;;;;;;4982557;28;20497;-59
2023/05/10 05:04:24;;;;;;;6.80;5.03;;;;;;;;;;4983502;28;20042;-58
2023/05/10 05:06:50;;;;;;;5.90;4.60;;;;;;;;;;4983730;28;20067;-59
2023/05/10 05:09:16;;;;;;;6.45;5.63;;;;;;;;;;4981699;28;20134;-59
2023/05/10 05:11:41;;;;;;;8.55;4.80;;;;;;;;;;4984617;28;20066;-61
2023/05/10 05:14:07;;;;;;;9.85;5.35;;;;;;;;;;4983125;28;20045;-60
2023/05/10 05:16:32;;;;;;;7.65;4.88;;;;;;;;;;4982251;28;20481;-59
2023/05/10 05:18:57;;;;;;;5.45;4.90;;;;;;;;;;4981548;28;20046;-60
2023/05/10 05:21:24;;;;;;;7.18;5.22;;;;;;;;;;4981268;28;20038;-61
2023/05/10 05:23:50;;;;;;;6.10;4.22;;;;;;;;;;4979494;28;20402;-59
2023/05/10 05:26:15;;;;;;;8.80;4.43;;;;;;;;;;4979307;28;20046;-60
2023/05/10 05:28:41;;;;;;;6.10;4.40;;;;;;;;;;4980278;28;20038;-60
2023/05/10 05:31:10;;;;;;;6.85;5.00;;;;;;;;;;4983793;28;20688;-60
2023/05/10 05:33:35;;;;;;;6.65;4.85;;;;;;;;;;4981753;28;20030;-59
2023/05/10 05:36:01;;;;;;;5.30;4.80;;;;;;;;;;4979070;28;20019;-60
2023/05/10 05:38:26;;;;;;;9.85;5.68;;;;;;;;;;4985117;28;20115;-58
2023/05/10 05:40:52;;;;;;;6.13;5.03;;;;;;;;;;4984977;28;20482;-60
2023/05/10 05:43:17;;;;;;;5.95;4.57;;;;;;;;;;4981093;28;20449;-60
2023/05/10 05:45:43;;;;;;;8.63;4.70;;;;;;;;;;4982562;28;20046;-60
2023/05/10 05:48:08;;;;;;;7.10;4.45;;;;;;;;;;4980261;28;20453;-58
2023/05/10 05:50:34;;;;;;;4.82;4.43;;;;;;;;;;4982464;28;20042;-58
2023/05/10 05:52:59;;;;;;;6.30;4.07;;;;;;;;;;4987968;28;20042;-59
2023/05/10 05:55:25;;;;;;;4.40;3.67;;;;;;;;;;4984092;28;20429;-60
2023/05/10 05:57:51;;;;;;;4.38;3.97;;;;;;;;;;4982571;28;20042;-59
2023/05/10 06:00:17;;;;;;;4.13;3.50;;;;;;;;;;4981922;28;20669;-59
2023/05/10 06:02:44;;;;;;;4.88;4.30;;;;;;;;;;4984580;28;20504;-58
2023/05/10 06:05:09;;;;;;;5.20;4.00;;;;;;;;;;4980717;28;20455;-59
2023/05/10 06:07:34;;;;;;;6.22;3.75;;;;;;;;;;4981476;28;20537;-59
2023/05/10 06:10:00;;;;;;;4.13;3.50;;;;;;;;;;4981162;28;20521;-60
2023/05/10 06:12:25;;;;;;;4.25;3.85;;;;;;;;;;4980170;28;20500;-58
2023/05/10 06:14:51;;;;;;;9.45;3.75;;;;;;;;;;4981057;28;20035;-59
2023/05/10 06:17:16;;;;;;;3.95;3.35;;;;;;;;;;4981328;28;20983;-59
2023/05/10 06:19:42;;;;;;;4.18;3.50;;;;;;;;;;4981444;28;20050;-59
2023/05/10 06:22:07;;;;;;;5.00;3.65;;;;;;;;;;4982880;28;20050;-60
2023/05/10 06:24:33;;;;;;;4.43;4.03;;;;;;;;;;4981131;28;20121;-60
2023/05/10 06:27:00;;;;;;;5.00;3.42;;;;;;;;;;4980763;28;20137;-60
2023/05/10 06:29:25;;;;;;;4.00;3.60;;;;;;;;;;4982301;28;20152;-59
2023/05/10 06:31:51;;;;;;;6.15;4.15;;;;;;;;;;4981267;28;20031;-59
2023/05/10 06:34:16;;;;;;;7.03;3.70;;;;;;;;;;4982619;28;20541;-60
2023/05/10 06:36:42;;;;;;;5.45;3.45;;;;;;;;;;4979599;28;20046;-60
2023/05/10 06:39:07;;;;;;;4.53;3.92;;;;;;;;;;4978393;28;20034;-60
2023/05/10 06:41:33;;;;;;;6.60;4.30;;;;;;;;;;4981124;28;20054;-60
2023/05/10 06:43:59;;;;;;;6.65;3.50;;;;;;;;;;4983134;28;20038;-60
2023/05/10 06:46:24;;;;;;;4.13;3.72;;;;;;;;;;4981566;28;20504;-60
2023/05/10 06:48:49;;;;;;;8.77;4.10;;;;;;;;;;4981732;28;20031;-60
2023/05/10 06:51:15;;;;;;;4.28;3.20;;;;;;;;;;4978723;28;20544;-61
2023/05/10 06:53:41;;;;;;;5.75;3.95;;;;;;;;;;4978569;28;20041;-60
2023/05/10 06:56:06;;;;;;;3.88;3.08;;;;;;;;;;4981837;28;20022;-59
2023/05/10 06:58:32;;;;;;;3.90;3.50;;;;;;;;;;4983551;28;20042;-60
2023/05/10 07:01:04;;;;;;;4.22;3.05;;;;;;;;;;4981404;28;20044;-59
2023/05/10 07:03:30;;;;;;;7.55;4.03;;;;;;;;;;4982182;28;20046;-60
2023/05/10 07:06:00;;;;;;;4.05;3.75;;;;;;;;;;4978976;28;20053;-61
2023/05/10 07:08:25;;;;;;;4.38;4.03;;;;;;;;;;4979416;28;20034;-60
2023/05/10 07:10:51;;;;;;;5.05;3.20;;;;;;;;;;4979211;28;20080;-59
2023/05/10 07:13:16;;;;;;;3.85;3.45;;;;;;;;;;4981357;28;20038;-60
2023/05/10 07:15:42;;;;;;;4.45;4.03;;;;;;;;;;4980958;28;20043;-59
2023/05/10 07:18:07;;;;;;;3.80;3.45;;;;;;;;;;4980951;28;20065;-59
2023/05/10 07:20:33;;;;;;;3.45;3.15;;;;;;;;;;4981021;28;20054;-59
2023/05/10 07:22:58;;;;;;;3.42;3.13;;;;;;;;;;4977894;28;20469;-58
2023/05/10 07:25:24;;;;;;;4.13;3.22;;;;;;;;;;4977793;28;20180;-58
2023/05/10 07:27:49;;;;;;;3.63;3.25;;;;;;;;;;4982498;28;20370;-59
2023/05/10 07:30:15;;;;;;;2.85;2.65;;;;;;;;;;4979882;28;20541;-59
2023/05/10 07:32:41;;;;;;;4.55;3.33;;;;;;;;;;4981804;28;20274;-59
2023/05/10 07:35:07;;;;;;;3.10;2.80;;;;;;;;;;4978346;28;20058;-59
2023/05/10 07:37:33;;;;;;;3.78;2.95;;;;;;;;;;4979436;28;20494;-58
2023/05/10 07:39:58;;;;;;;3.03;2.83;;;;;;;;;;4979561;28;20053;-59
2023/05/10 07:42:24;;;;;;;5.93;3.33;;;;;;;;;;4979832;28;20121;-57
2023/05/10 07:44:49;;;;;;;3.50;2.92;;;;;;;;;;4982940;28;20034;-59
2023/05/10 07:47:15;;;;;;;3.83;3.53;;;;;;;;;;4979794;28;20076;-58
2023/05/10 07:49:40;;;;;;;3.40;3.15;;;;;;;;;;4977185;28;20046;-59
2023/05/10 07:52:06;;;;;;;5.60;3.40;;;;;;;;;;4976997;28;20467;-58
2023/05/10 07:54:31;;;;;;;3.78;3.58;;;;;;;;;;4985771;28;20038;-58
2023/05/10 07:56:57;;;;;;;3.90;3.08;;;;;;;;;;4983457;28;20046;-59
2023/05/10 07:59:22;;;;;;;3.90;3.33;;;;;;;;;;4980509;28;20048;-58
2023/05/10 08:01:47;;;;;;;3.30;3.05;;;;;;;;;;4979695;28;20162;-59
2023/05/10 08:04:13;;;;;;;4.28;3.45;;;;;;;;;;4979315;28;20030;-59
2023/05/10 08:06:39;;;;;;;2.78;2.58;;;;;;;;;;4981571;28;20054;-58
2023/05/10 08:09:04;;;;;;;3.38;3.10;;;;;;;;;;4979898;28;20046;-59
2023/05/10 08:11:30;;;;;;;2.95;2.75;;;;;;;;;;4978400;28;20106;-59
2023/05/10 08:13:55;;;;;;;5.20;3.40;;;;;;;;;;4979387;28;20309;-59
2023/05/10 08:16:21;;;;;;;3.47;3.20;;;;;;;;;;4981926;28;20034;-59
2023/05/10 08:18:46;;;;;;;3.13;2.83;;;;;;;;;;4982271;28;20581;-59
2023/05/10 08:21:12;;;;;;;4.97;2.83;;;;;;;;;;4978822;28;20442;-60
2023/05/10 08:23:38;;;;;;;2.45;2.30;;;;;;;;;;4978310;28;20019;-58
2023/05/10 08:26:03;;;;;;;2.83;2.70;;;;;;;;;;4981606;28;20397;-60
2023/05/10 08:28:28;;;;;;;3.05;2.85;;;;;;;;;;4980165;28;20509;-59
2023/05/10 08:30:54;;;;;;;3.05;2.75;;;;;;;;;;4981681;28;20493;-59
2023/05/10 08:33:19;;;;;;;2.83;2.63;;;;;;;;;;4980061;28;20042;-60
2023/05/10 08:35:45;;;;;;;5.57;2.60;;;;;;;;;;4982001;28;20058;-57
2023/05/10 08:38:10;;;;;;;3.35;2.65;;;;;;;;;;4974445;28;20466;-59
2023/05/10 08:40:45;;;;;;;9.02;3.42;;;;;;;;;;4983172;28;20058;-60
2023/05/10 08:43:10;;;;;;;;;;;;;;;;;;4983038;28;20042;-58
2023/05/10 08:45:40;;;;;;;2.53;2.33;;;;;;;;;;4982392;28;19917;-58
2023/05/10 08:48:06;;;;;;;3.88;2.60;;;;;;;;;;4982903;28;20038;-60
2023/05/10 08:50:35;;;;;;;4.00;3.50;;;;;;;;;;4983238;28;20039;-57
2023/05/10 08:53:03;;;;;;;3.80;3.40;;;;;;;;;;4979786;28;20162;-58
2023/05/10 08:55:29;;;;;;;5.68;3.83;;;;;;;;;;4979564;28;20140;-58
2023/05/10 08:57:55;;;;;;;7.10;4.43;;;;;;;;;;4979120;28;20069;-58
2023/05/10 09:00:22;;;;;;;4.07;3.67;;;;;;;;;;4984507;28;20254;-59
2023/05/10 09:02:49;;;;;;;3.60;3.30;;;;;;;;;;4981436;28;20047;-59
2023/05/10 09:05:15;;;;;;;4.28;3.92;;;;;;;;;;4980462;28;20045;-55
2023/05/10 09:07:41;;;;;;;8.35;3.72;;;;;;;;;;4979214;28;20456;-59
2023/05/10 09:10:08;;;;;;;4.47;3.13;;;;;;;;;;4982383;28;20776;-59
2023/05/10 09:12:33;;;;;;;4.53;4.13;;;;;;;;;;4984936;28;20035;-59
2023/05/10 09:14:59;;;;;;;5.45;3.78;;;;;;;;;;4985034;28;20485;-59
2023/05/10 09:17:25;;;;;;;4.20;3.90;;;;;;;;;;4979595;28;20058;-59
2023/05/10 09:19:56;;;;;;;3.78;3.42;;;;;;;;;;4981259;28;20133;-59
2023/05/10 09:22:22;;;;;;;3.53;3.25;;;;;;;;;;4982519;28;20426;-59
2023/05/10 09:24:47;;;;;;;3.47;3.17;;;;;;;;;;4980179;28;20188;-60
2023/05/10 09:27:13;;;;;;;5.05;3.53;;;;;;;;;;4979923;28;20030;-59
2023/05/10 09:29:38;;;;;;;3.83;3.53;;;;;;;;;;4980696;28;20049;-60
2023/05/10 09:32:04;;;;;;;4.05;3.55;;;;;;;;;;4981397;28;20051;-59
2023/05/10 09:34:30;;;;;;;5.97;3.85;;;;;;;;;;4983796;28;20038;-59
2023/05/10 09:36:57;;;;;;;5.50;3.75;;;;;;;;;;4982471;28;20065;-59
2023/05/10 09:39:32;;;;;;;4.03;3.72;;;;;;;;;;4979873;28;20116;-59
2023/05/10 09:41:58;;;;;;;4.88;3.38;;;;;;;;;;4981609;28;20035;-60
2023/05/10 09:44:25;;;;;;;9.02;3.15;;;;;;;;;;4980492;28;20092;-59
2023/05/10 09:46:52;;;;;;;4.90;3.25;;;;;;;;;;4982522;28;20631;-60
2023/05/10 09:49:18;;;;;;;4.38;3.78;;;;;;;;;;4983417;28;20161;-58
2023/05/10 09:51:43;;;;;;;3.83;3.42;;;;;;;;;;4981404;28;20035;-58
2023/05/10 09:54:13;;;;;;;4.57;3.45;;;;;;;;;;4984785;28;20062;-59
2023/05/10 09:56:40;;;;;;;4.82;3.33;;;;;;;;;;4979846;28;20375;-59
2023/05/10 09:59:07;;;;;;;3.92;2.85;;;;;;;;;;4980252;28;20055;-59
2023/05/10 10:01:33;;;;;;;5.20;2.80;;;;;;;;;;4982048;28;20176;-59
2023/05/10 10:03:59;;;;;;;3.53;2.88;;;;;;;;;;4980601;28;20482;-58
2023/05/10 10:06:25;;;;;;;3.35;3.15;;;;;;;;;;4982632;28;20093;-59
2023/05/10 10:08:51;;;;;;;5.97;2.92;;;;;;;;;;4982846;28;20046;-59
2023/05/10 10:11:16;;;;;;;3.92;2.72;;;;;;;;;;4983169;28;20065;-59
2023/05/10 10:13:42;;;;;;;3.05;2.85;;;;;;;;;;4982684;28;20046;-59
2023/05/10 10:16:08;;;;;;;2.58;2.38;;;;;;;;;;4982346;28;20145;-60
2023/05/10 10:18:38;;;;;;;4.47;2.60;;;;;;;;;;4980567;28;20086;-60
2023/05/10 10:21:05;;;;;;;3.10;2.38;;;;;;;;;;4980876;28;20038;-61
2023/05/10 10:23:30;;;;;;;3.00;2.45;;;;;;;;;;4979230;28;20043;-59
2023/05/10 10:25:56;;;;;;;2.42;2.33;;;;;;;;;;4980731;28;20096;-58
2023/05/10 10:28:26;;;;;;;2.60;2.40;;;;;;;;;;4981403;28;20045;-59
2023/05/10 10:30:54;;;;;;;2.50;2.30;;;;;;;;;;4981900;28;20037;-59
2023/05/10 10:33:38;;;;;;;3.35;2.50;;;;;;;;;;4981380;28;20569;-58
2023/05/10 10:36:04;;;;;;;2.22;2.13;;;;;;;;;;4978674;28;20033;-59
2023/05/10 10:38:37;;;;;;;2.45;2.25;;;;;;;;;;4978935;28;20585;-59
2023/05/10 10:41:07;;;;;;;2.08;1.98;;;;;;;;;;4979947;28;20042;-60
2023/05/10 10:43:33;;;;;;;3.00;2.25;;;;;;;;;;4982041;28;20038;-54
2023/05/10 10:46:14;;;;;;;2.35;2.25;;;;;;;;;;4981971;28;20033;-58
2023/05/10 10:48:39;;;;;;;3.83;2.35;;;;;;;;;;4980741;28;20145;-58
2023/05/10 10:51:05;;;;;;;2.50;2.28;;;;;;;;;;4980329;28;20544;-60
2023/05/10 10:53:31;;;;;;;2.28;2.08;;;;;;;;;;4979389;28;20529;-61
2023/05/10 10:56:10;;;;;;;8.95;2.40;;;;;;;;;;4979818;28;20038;-59
2023/05/10 10:58:37;;;;;;;2.40;2.20;;;;;;;;;;4981785;28;20068;-59
2023/05/10 11:01:28;;;;;;;3.33;2.42;;;;;;;;;;4981892;28;20129;-58
2023/05/10 11:03:59;;;;;;;2.60;2.40;;;;;;;;;;4979552;28;20494;-59
2023/05/10 11:06:29;;;;;;;4.05;2.60;;;;;;;;;;4981553;28;20034;-59
2023/05/10 11:08:54;;;;;;;2.42;2.10;;;;;;;;;;4980842;28;20046;-59
2023/05/10 11:11:20;;;;;;;2.35;2.20;;;;;;;;;;4979582;28;20044;-59
2023/05/10 11:13:48;;;;;;;2.42;2.22;;;;;;;;;;4980374;28;20034;-59
2023/05/10 11:16:15;;;;;;;2.75;2.55;;;;;;;;;;4981849;28;20278;-57
2023/05/10 11:18:41;;;;;;;6.43;2.55;;;;;;;;;;4978688;28;20082;-61
2023/05/10 11:21:10;;;;;;;2.90;2.78;;;;;;;;;;4980980;28;20121;-58
2023/05/10 11:23:48;;;;;;;2.88;2.67;;;;;;;;;;4978373;28;20065;-58
2023/05/10 11:26:14;;;;;;;4.28;2.70;;;;;;;;;;4977300;28;20038;-57
2023/05/10 11:28:46;;;;;;;2.83;2.70;;;;;;;;;;4977245;28;20401;-59
2023/05/10 11:31:18;;;;;;;2.65;2.55;;;;;;;;;;4982894;28;20037;-60
2023/05/10 11:33:47;;;;;;;4.95;3.15;;;;;;;;;;4980883;28;20338;-61
2023/05/10 11:36:14;;;;;;;4.43;2.80;;;;;;;;;;4982830;28;20116;-61
2023/05/10 11:38:39;;;;;;;6.93;2.65;;;;;;;;;;4981275;28;20124;-61
2023/05/10 11:41:05;;;;;;;3.60;2.60;;;;;;;;;;4978505;28;20068;-61
2023/05/10 11:43:31;;;;;;;2.95;2.38;;;;;;;;;;4979491;28;20160;-60
2023/05/10 11:45:56;;;;;;;3.78;2.50;;;;;;;;;;4981390;28;20177;-60
2023/05/10 11:48:23;;;;;;;3.10;2.80;;;;;;;;;;4987617;28;20038;-59
2023/05/10 11:50:49;;;;;;;2.25;2.15;;;;;;;;;;4978890;28;20065;-60
2023/05/10 11:53:15;;;;;;;2.60;2.40;;;;;;;;;;4977945;28;20477;-60
2023/05/10 11:55:40;;;;;;;3.58;2.63;;;;;;;;;;4979780;28;20523;-60
2023/05/10 11:58:05;;;;;;;2.33;2.22;;;;;;;;;;4969975;28;20623;-62
2023/05/10 12:00:31;;;;;;;3.03;2.55;;;;;;;;;;4976977;28;20471;-61
2023/05/10 12:02:56;;;;;;;3.15;2.45;;;;;;;;;;4978680;28;20114;-60
2023/05/10 12:05:22;;;;;;;2.53;2.35;;;;;;;;;;4976926;28;20035;-61
2023/05/10 12:07:47;;;;;;;2.50;2.30;;;;;;;;;;4984038;28;20507;-61
2023/05/10 12:10:19;;;;;;;3.45;2.28;;;;;;;;;;4981918;28;20619;-62
2023/05/10 12:12:45;;;;;;;2.42;2.22;;;;;;;;;;4986813;28;20043;-61
2023/05/10 12:15:16;;;;;;;2.33;2.13;;;;;;;;;;4983022;28;20478;-62
2023/05/10 12:17:43;;;;;;;2.67;2.53;;;;;;;;;;4981994;28;20054;-62
2023/05/10 12:20:19;;;;;;;2.97;2.20;;;;;;;;;;4983799;28;20054;-61
2023/05/10 12:22:55;;;;;;;1.90;1.80;;;;;;;;;;4984184;28;20038;-61
2023/05/10 12:25:22;;;;;;;2.20;2.10;;;;;;;;;;4982157;28;20035;-60
2023/05/10 12:27:51;;;;;;;2.10;2.00;;;;;;;;;;4982144;28;20030;-62
2023/05/10 12:30:27;;;;;;;3.13;2.13;;;;;;;;;;4981967;28;20093;-61
2023/05/10 12:32:53;;;;;;;2.40;2.28;;;;;;;;;;4983678;28;20041;-63
2023/05/10 12:35:23;;;;;;;2.42;2.20;;;;;;;;;;4984002;28;20038;-62
2023/05/10 12:37:50;;;;;;;3.95;2.20;;;;;;;;;;4981802;28;20045;-61
2023/05/10 12:40:16;;;;;;;2.35;2.15;;;;;;;;;;4982778;28;20046;-60
2023/05/10 12:42:42;;;;;;;2.75;2.20;;;;;;;;;;4984246;28;20081;-62
2023/05/10 12:45:08;;;;;;;4.32;2.80;;;;;;;;;;4984741;28;20035;-63
2023/05/10 12:47:33;;;;;;;3.28;1.92;;;;;;;;;;4987493;28;20034;-62
2023/05/10 12:50:02;;;;;;;7.13;2.58;;;;;;;;;;4982415;28;20478;-61
2023/05/10 12:52:28;;;;;;;2.47;2.28;;;;;;;;;;4983407;28;20038;-61
2023/05/10 12:54:53;;;;;;;6.63;2.28;;;;;;;;;;4984240;28;20057;-61
2023/05/10 12:57:22;;;;;;;3.70;2.28;;;;;;;;;;4983425;28;20457;-61
2023/05/10 12:59:47;;;;;;;1.98;1.88;;;;;;;;;;4983907;28;20041;-60
2023/05/10 13:02:14;;;;;;;3.15;2.40;;;;;;;;;;4981290;28;20116;-60
2023/05/10 13:04:40;;;;;;;2.15;2.05;;;;;;;;;;4979978;28;20030;-62
2023/05/10 13:07:06;;;;;;;2.10;2.00;;;;;;;;;;4986510;28;20042;-61
2023/05/10 13:09:32;;;;;;;2.00;1.90;;;;;;;;;;4981190;28;20532;-65
2023/05/10 13:11:57;;;;;;;2.05;1.92;;;;;;;;;;4984934;28;20092;-61
2023/05/10 13:14:23;;;;;;;2.20;2.10;;;;;;;;;;4981794;28;20038;-60
2023/05/10 13:16:48;;;;;;;2.95;2.17;;;;;;;;;;4982113;28;20047;-62
2023/05/10 13:19:14;;;;;;;2.55;2.20;;;;;;;;;;4983646;28;20081;-62
2023/05/10 13:21:42;;;;;;;4.00;1.90;;;;;;;;;;4985012;28;20126;-61
2023/05/10 13:24:08;;;;;;;2.72;2.25;;;;;;;;;;4983976;28;20030;-61
2023/05/10 13:26:33;;;;;;;5.55;2.53;;;;;;;;;;4988786;28;20155;-61
2023/05/10 13:28:59;;;;;;;2.25;2.15;;;;;;;;;;4984992;28;20522;-60
2023/05/10 13:31:24;;;;;;;2.00;1.90;;;;;;;;;;4983357;28;20047;-60
2023/05/10 13:33:49;;;;;;;5.65;3.35;;;;;;;;;;4983841;28;20042;-59
2023/05/10 13:36:15;;;;;;;2.40;2.20;;;;;;;;;;4981985;28;20088;-59
2023/05/10 13:38:44;;;;;;;2.65;2.38;;;;;;;;;;4987363;28;20049;-59
2023/05/10 13:41:09;;;;;;;2.72;2.20;;;;;;;;;;4981978;28;20216;-60
2023/05/10 13:43:35;;;;;;;4.25;2.50;;;;;;;;;;4982033;28;20076;-59
2023/05/10 13:46:01;;;;;;;4.82;2.65;;;;;;;;;;4982032;28;20046;-60
2023/05/10 13:48:27;;;;;;;2.67;2.47;;;;;;;;;;4972156;28;20038;-59
2023/05/10 13:50:52;;;;;;;2.60;2.40;;;;;;;;;;4982456;28;20484;-58
2023/05/10 13:53:18;;;;;;;5.03;2.50;;;;;;;;;;4980367;28;20037;-60
2023/05/10 13:55:43;;;;;;;2.95;2.75;;;;;;;;;;4983075;28;20090;-61
2023/05/10 13:58:09;;;;;;;4.07;2.50;;;;;;;;;;4984152;28;20065;-59
2023/05/10 14:00:34;;;;;;;2.45;2.35;;;;;;;;;;4989860;28;20284;-59
2023/05/10 14:03:00;;;;;;;2.53;2.42;;;;;;;;;;4982086;28;20081;-61
2023/05/10 14:05:26;;;;;;;2.33;2.22;;;;;;;;;;4985634;28;20149;-61
2023/05/10 14:07:51;;;;;;;4.60;2.40;;;;;;;;;;4979141;28;20081;-61
2023/05/10 14:10:17;;;;;;;3.88;2.92;;;;;;;;;;4980838;28;20056;-62
2023/05/10 14:12:42;;;;;;;2.67;2.45;;;;;;;;;;4981662;28;20334;-62
2023/05/10 14:15:10;;;;;;;2.83;2.40;;;;;;;;;;4980768;28;20390;-61
2023/05/10 14:17:35;;;;;;;2.40;2.30;;;;;;;;;;4981568;28;20539;-61
2023/05/10 14:20:01;;;;;;;2.42;2.33;;;;;;;;;;4977033;28;20486;-61
2023/05/10 14:22:26;;;;;;;2.72;2.53;;;;;;;;;;4979427;28;20057;-60
2023/05/10 14:24:52;;;;;;;3.22;2.92;;;;;;;;;;4979980;28;20039;-61
2023/05/10 14:27:17;;;;;;;2.83;2.63;;;;;;;;;;4986149;28;20038;-61
2023/05/10 14:29:43;;;;;;;2.35;2.25;;;;;;;;;;4981761;28;20031;-61
2023/05/10 14:32:16;;;;;;;2.63;2.45;;;;;;;;;;4981817;28;20070;-61
2023/05/10 14:34:43;;;;;;;2.30;2.20;;;;;;;;;;4980894;28;20476;-60
2023/05/10 14:37:10;;;;;;;3.85;2.58;;;;;;;;;;4980250;28;20030;-60
2023/05/10 14:39:35;;;;;;;5.15;2.70;;;;;;;;;;4978933;28;20109;-61
2023/05/10 14:42:02;;;;;;;3.00;2.63;;;;;;;;;;4980282;28;20034;-60